Time;durP1;ratioP1;P1;durP2;ratioP2;P2;SDS_P1;SDS_P2;PMS_P1;PMS_P2;Temp;Humidity;BMP_temperature;BMP_pressure;BME280_temperature;BME280_humidity;BME280_pressure;Samples;Min_cycle;Max_cycle;Signal;HPM_P1;HPM_P2
2022/10/03 00:02:34;;;;;;;9.45;2.88;;;13.20;76.70;;;;;;5113276;28;20029;-70
2022/10/03 00:05:37;;;;;;;14.95;3.03;;;13.20;76.80;;;;;;5113128;28;20035;-70
2022/10/03 00:08:34;;;;;;;12.43;3.60;;;13.10;76.90;;;;;;5112964;28;20048;-70
2022/10/03 00:11:17;;;;;;;6.72;3.42;;;13.20;76.90;;;;;;5113187;28;20058;-70
2022/10/03 00:13:52;;;;;;;8.30;2.70;;;13.20;77.10;;;;;;5113347;28;20028;-71
2022/10/03 00:16:20;;;;;;;8.35;2.53;;;13.20;77.00;;;;;;5113284;28;20034;-71
2022/10/03 00:18:52;;;;;;;10.52;2.85;;;13.20;77.30;;;;;;5113066;28;20020;-71
2022/10/03 00:21:24;;;;;;;12.05;3.80;;;13.10;77.00;;;;;;5113061;28;20032;-71
2022/10/03 00:23:59;;;;;;;9.00;3.28;;;13.10;76.90;;;;;;5116561;28;20024;-70
2022/10/03 00:26:55;;;;;;;13.43;3.60;;;13.10;76.80;;;;;;5116906;28;20043;-71
2022/10/03 00:29:32;;;;;;;8.93;3.30;;;13.20;76.70;;;;;;5098893;28;20024;-71
2022/10/03 00:32:10;;;;;;;9.73;2.53;;;13.10;76.70;;;;;;5116917;28;20023;-71
2022/10/03 00:34:44;;;;;;;12.30;3.25;;;13.00;76.90;;;;;;5116724;28;20084;-70
2022/10/03 00:37:21;;;;;;;7.78;2.45;;;13.00;77.20;;;;;;5116651;28;20080;-70
2022/10/03 00:39:50;;;;;;;7.95;2.60;;;13.00;77.40;;;;;;5116746;28;20024;-70
2022/10/03 00:42:21;;;;;;;6.18;2.33;;;13.10;77.40;;;;;;5116516;28;20028;-70
2022/10/03 00:45:25;;;;;;;7.72;2.80;;;13.10;76.90;;;;;;5116403;28;20024;-71
2022/10/03 00:48:09;;;;;;;;;;;13.10;76.40;;;;;;5116633;28;20055;-71
2022/10/03 00:50:43;;;;;;;9.00;3.20;;;13.10;76.40;;;;;;5116373;28;19908;-71
2022/10/03 00:53:48;;;;;;;11.43;4.47;;;13.00;76.50;;;;;;5116454;28;20514;-70
2022/10/03 00:56:34;;;;;;;12.55;4.20;;;12.90;76.30;;;;;;5054060;28;20108;-70
2022/10/03 00:59:02;;;;;;;8.40;3.55;;;12.80;76.50;;;;;;5113565;28;20039;-70
2022/10/03 01:01:37;;;;;;;14.45;4.18;;;12.70;76.60;;;;;;5116148;28;20048;-70
2022/10/03 01:04:37;;;;;;;15.63;4.50;;;12.70;76.60;;;;;;5116145;28;20024;-71
2022/10/03 01:07:32;;;;;;;13.70;3.95;;;12.70;76.30;;;;;;5116226;28;20030;-71
2022/10/03 01:10:17;;;;;;;8.43;2.85;;;12.70;76.40;;;;;;5116012;28;20012;-71
2022/10/03 01:13:13;;;;;;;10.10;2.30;;;12.60;76.40;;;;;;5115995;28;20017;-70
2022/10/03 01:16:03;;;;;;;7.20;2.55;;;12.60;76.40;;;;;;5116048;28;20042;-71
2022/10/03 01:18:58;;;;;;;7.38;2.63;;;12.40;76.60;;;;;;5115871;28;20054;-71
2022/10/03 01:21:56;;;;;;;7.10;2.90;;;12.40;76.90;;;;;;5115265;28;20067;-70
2022/10/03 01:24:50;;;;;;;6.60;2.63;;;12.30;77.30;;;;;;5115628;28;20111;-70
2022/10/03 01:27:29;;;;;;;5.00;2.53;;;12.30;77.50;;;;;;5115716;28;20024;-70
2022/10/03 01:30:21;;;;;;;10.30;2.47;;;12.20;77.90;;;;;;5097664;28;20047;-71
2022/10/03 01:33:08;;;;;;;9.97;2.60;;;12.20;77.80;;;;;;5115640;28;20028;-70
2022/10/03 01:36:06;;;;;;;9.77;3.10;;;12.20;77.50;;;;;;5114905;28;20032;-70
2022/10/03 01:38:52;;;;;;;10.90;3.17;;;12.10;77.60;;;;;;5115615;28;20020;-70
2022/10/03 01:41:41;;;;;;;7.43;3.17;;;12.10;78.10;;;;;;5115430;28;20103;-71
2022/10/03 01:44:27;;;;;;;9.55;3.15;;;12.10;78.80;;;;;;5115486;28;20050;-71
2022/10/03 01:47:26;;;;;;;8.43;3.20;;;12.10;79.40;;;;;;5115236;28;20036;-71
2022/10/03 01:50:33;;;;;;;7.60;2.80;;;12.20;79.60;;;;;;5115395;28;20023;-71
2022/10/03 01:53:42;;;;;;;7.18;3.03;;;12.20;79.60;;;;;;5081059;28;20036;-71
2022/10/03 01:56:17;;;;;;;10.05;3.22;;;12.20;79.70;;;;;;5086225;28;20032;-70
2022/10/03 01:58:51;;;;;;;6.18;2.63;;;12.10;80.10;;;;;;5115228;28;20028;-71
2022/10/03 02:01:35;;;;;;;12.45;3.22;;;12.20;80.00;;;;;;5115007;28;20020;-71
2022/10/03 02:04:28;;;;;;;10.70;3.28;;;12.20;80.10;;;;;;5114926;28;20028;-71
2022/10/03 02:07:10;;;;;;;;;;;12.30;80.00;;;;;;5115493;28;20027;-71
2022/10/03 02:09:44;;;;;;;8.57;2.92;;;12.20;79.70;;;;;;5114823;28;19948;-70
2022/10/03 02:12:13;;;;;;;6.63;2.90;;;12.20;79.70;;;;;;5114858;28;20024;-70
2022/10/03 02:14:56;;;;;;;13.13;3.20;;;12.20;79.70;;;;;;5114744;28;20026;-70
2022/10/03 02:17:59;;;;;;;8.27;3.08;;;12.20;79.90;;;;;;5096872;28;20429;-70
2022/10/03 02:20:44;;;;;;;4.18;2.60;;;12.10;80.10;;;;;;5096727;28;20043;-70
2022/10/03 02:23:31;;;;;;;5.85;2.75;;;12.10;79.80;;;;;;5114759;28;20020;-70
2022/10/03 02:26:25;;;;;;;6.72;2.50;;;12.10;79.60;;;;;;5114611;28;20028;-70
2022/10/03 02:29:25;;;;;;;7.80;3.30;;;12.10;79.70;;;;;;5114391;28;20436;-70
2022/10/03 02:32:28;;;;;;;5.20;2.55;;;12.10;79.80;;;;;;5114434;28;20020;-70
2022/10/03 02:35:13;;;;;;;9.52;3.08;;;12.20;79.80;;;;;;5114376;28;20055;-70
2022/10/03 02:37:54;;;;;;;9.80;3.65;;;12.20;79.90;;;;;;5114298;28;20048;-70
2022/10/03 02:40:31;;;;;;;7.05;2.78;;;12.20;80.30;;;;;;5114419;28;20062;-71
2022/10/03 02:43:15;;;;;;;8.70;3.10;;;12.20;80.40;;;;;;5114252;28;20031;-71
2022/10/03 02:45:42;;;;;;;8.00;3.10;;;12.20;80.40;;;;;;5114274;28;20028;-71
2022/10/03 02:48:37;;;;;;;7.45;3.00;;;12.20;80.50;;;;;;5113971;28;20404;-70
2022/10/03 02:51:23;;;;;;;8.48;2.97;;;12.20;80.50;;;;;;5114256;28;20016;-70
2022/10/03 02:54:02;;;;;;;9.68;3.33;;;12.20;80.50;;;;;;5114186;28;20029;-71
2022/10/03 02:56:55;;;;;;;5.38;3.03;;;12.20;80.40;;;;;;5114170;28;20466;-70
2022/10/03 02:59:51;;;;;;;6.85;3.08;;;12.20;80.50;;;;;;5114017;28;20045;-70
2022/10/03 03:02:54;;;;;;;9.05;3.13;;;12.20;80.40;;;;;;5114061;28;20027;-70
2022/10/03 03:05:38;;;;;;;7.80;2.88;;;12.20;80.00;;;;;;5113771;28;20547;-71
2022/10/03 03:08:23;;;;;;;7.85;2.78;;;12.20;79.80;;;;;;5113821;28;20031;-70
2022/10/03 03:11:19;;;;;;;10.00;3.28;;;12.20;79.80;;;;;;5113792;28;20020;-71
2022/10/03 03:14:13;;;;;;;8.98;2.58;;;12.10;79.80;;;;;;5113731;28;20058;-70
2022/10/03 03:17:05;;;;;;;8.32;3.00;;;12.10;79.70;;;;;;5113754;28;20020;-71
2022/10/03 03:19:37;;;;;;;8.07;2.88;;;12.10;79.50;;;;;;5113868;28;20020;-70
2022/10/03 03:22:33;;;;;;;10.73;3.17;;;12.10;79.30;;;;;;5113643;28;20433;-70
2022/10/03 03:25:25;;;;;;;4.65;2.42;;;12.00;79.10;;;;;;5113695;28;20028;-70
2022/10/03 03:28:15;;;;;;;13.65;3.33;;;11.90;78.90;;;;;;5113748;28;20023;-70
2022/10/03 03:30:58;;;;;;;6.15;3.10;;;11.70;79.10;;;;;;5113585;28;20020;-71
2022/10/03 03:34:01;;;;;;;6.68;2.65;;;11.60;79.60;;;;;;5113722;28;20044;-71
2022/10/03 03:36:43;;;;;;;8.63;3.08;;;11.60;79.70;;;;;;5113564;28;20053;-70
2022/10/03 03:39:24;;;;;;;7.20;3.07;;;11.50;79.80;;;;;;5113619;28;20031;-70
2022/10/03 03:41:56;;;;;;;9.18;3.25;;;11.40;80.00;;;;;;5113639;28;20254;-70
2022/10/03 03:44:59;;;;;;;7.05;3.13;;;11.40;80.10;;;;;;5113386;28;20035;-70
2022/10/03 03:48:02;;;;;;;7.57;3.55;;;11.30;80.60;;;;;;5095303;28;20055;-71
2022/10/03 03:50:43;;;;;;;7.07;3.25;;;11.30;81.30;;;;;;5113553;28;20054;-70
2022/10/03 03:53:18;;;;;;;6.38;3.20;;;11.30;80.50;;;;;;5113517;28;20058;-70
2022/10/03 03:56:03;;;;;;;9.13;3.42;;;11.40;80.60;;;;;;5113337;28;20024;-70
2022/10/03 03:58:44;;;;;;;7.53;3.28;;;11.30;80.50;;;;;;5116420;28;20016;-70
2022/10/03 04:01:51;;;;;;;9.82;3.40;;;11.30;80.70;;;;;;5117483;28;20527;-70
2022/10/03 04:04:55;;;;;;;5.03;2.90;;;11.30;81.00;;;;;;5117246;28;20103;-71
2022/10/03 04:07:29;;;;;;;;;;;11.40;81.00;;;;;;5117660;28;20090;-70
2022/10/03 04:10:04;;;;;;;8.20;3.13;;;11.40;80.70;;;;;;5117318;28;19930;-70
2022/10/03 04:12:38;;;;;;;7.97;3.40;;;11.40;80.90;;;;;;5117107;28;20016;-70
2022/10/03 04:15:42;;;;;;;7.70;3.15;;;11.30;80.80;;;;;;5117239;28;20028;-70
2022/10/03 04:21:34;;;;;;;10.57;3.33;;;11.30;80.90;;;;;;5117112;28;20034;-70
2022/10/03 04:24:28;;;;;;;4.93;2.97;;;11.30;81.00;;;;;;5098944;28;20156;-71
2022/10/03 04:26:58;;;;;;;7.72;3.30;;;11.20;81.10;;;;;;5116830;28;20028;-70
2022/10/03 04:29:46;;;;;;;11.32;3.60;;;11.20;81.30;;;;;;5116737;28;20024;-70
2022/10/03 04:32:59;;;;;;;6.30;3.30;;;11.10;81.40;;;;;;5116947;28;20028;-70
2022/10/03 04:35:39;;;;;;;6.30;2.92;;;11.10;81.30;;;;;;5054475;28;20030;-70
2022/10/03 04:38:21;;;;;;;7.10;3.25;;;11.10;81.50;;;;;;5115586;28;20044;-71
2022/10/03 04:41:06;;;;;;;5.68;3.33;;;11.10;81.40;;;;;;5116674;28;20084;-70
2022/10/03 04:43:42;;;;;;;8.20;3.20;;;11.10;81.60;;;;;;5116516;28;20048;-70
2022/10/03 04:46:08;;;;;;;7.35;3.45;;;11.00;81.60;;;;;;5116564;28;20035;-70
2022/10/03 04:49:01;;;;;;;5.35;3.08;;;10.90;81.70;;;;;;5116301;28;20048;-71
2022/10/03 04:51:43;;;;;;;6.72;2.88;;;10.90;82.00;;;;;;5098520;28;20065;-70
2022/10/03 04:54:15;;;;;;;6.53;3.20;;;10.90;81.60;;;;;;5116343;28;20043;-71
2022/10/03 04:57:28;;;;;;;7.47;3.30;;;10.90;81.70;;;;;;5116473;28;20032;-70
2022/10/03 05:00:01;;;;;;;8.63;3.83;;;10.90;81.80;;;;;;5102930;28;20040;-70
2022/10/03 05:02:30;;;;;;;7.47;3.20;;;10.90;81.80;;;;;;5116319;28;20024;-71
2022/10/03 05:05:19;;;;;;;7.55;3.53;;;11.00;81.90;;;;;;5116008;28;20083;-70
2022/10/03 05:08:11;;;;;;;5.28;3.30;;;11.00;81.90;;;;;;5116074;28;20024;-70
2022/10/03 05:10:48;;;;;;;8.05;3.60;;;11.10;81.90;;;;;;5115526;28;20024;-70
2022/10/03 05:13:32;;;;;;;7.90;3.03;;;11.10;81.60;;;;;;5115998;28;20044;-70
2022/10/03 05:16:14;;;;;;;8.68;3.47;;;11.10;81.30;;;;;;5116040;28;20016;-70
2022/10/03 05:18:44;;;;;;;7.30;3.33;;;11.00;81.20;;;;;;5116044;28;20028;-71
2022/10/03 05:21:23;;;;;;;8.98;3.60;;;11.00;81.50;;;;;;5115823;28;20024;-71
2022/10/03 05:24:06;;;;;;;6.53;3.47;;;11.00;81.80;;;;;;5115800;28;20053;-71
2022/10/03 05:26:38;;;;;;;6.90;2.92;;;10.90;81.70;;;;;;5115708;28;20079;-70
2022/10/03 05:29:22;;;;;;;8.57;3.65;;;10.90;81.80;;;;;;5115798;28;20119;-71
2022/10/03 05:32:16;;;;;;;7.38;3.10;;;11.00;81.50;;;;;;5115645;28;20028;-70
2022/10/03 05:34:51;;;;;;;5.53;3.17;;;11.00;81.30;;;;;;5115612;28;20020;-70
2022/10/03 05:37:39;;;;;;;6.63;3.17;;;10.90;81.40;;;;;;5115536;28;20032;-71
2022/10/03 05:40:21;;;;;;;5.90;3.28;;;10.90;81.10;;;;;;5115622;28;20020;-71
2022/10/03 05:42:51;;;;;;;;;;;10.80;81.30;;;;;;5115840;28;20024;-71
2022/10/03 05:45:23;;;;;;;6.43;3.13;;;10.80;81.30;;;;;;5115223;28;19908;-71
2022/10/03 05:48:06;;;;;;;6.97;3.22;;;10.80;81.20;;;;;;5115049;28;20110;-70
2022/10/03 05:51:12;;;;;;;11.02;3.05;;;10.90;81.10;;;;;;5115259;28;20025;-70
2022/10/03 05:53:49;;;;;;;6.28;2.97;;;11.00;80.60;;;;;;5115212;28;20028;-71
2022/10/03 05:56:34;;;;;;;8.27;3.15;;;11.00;80.10;;;;;;5115238;28;20035;-71
2022/10/03 05:59:18;;;;;;;8.10;3.10;;;11.00;80.00;;;;;;5115098;28;20084;-71
2022/10/03 06:02:16;;;;;;;7.20;3.40;;;10.90;80.40;;;;;;5114984;28;20020;-72
2022/10/03 06:05:21;;;;;;;8.32;2.60;;;10.90;79.90;;;;;;5096970;28;20016;-72
2022/10/03 06:07:46;;;;;;;5.20;2.75;;;10.80;79.70;;;;;;5112008;28;20032;-71
2022/10/03 06:10:48;;;;;;;6.70;2.75;;;10.80;80.10;;;;;;5114794;28;20039;-71
2022/10/03 06:13:53;;;;;;;7.22;2.88;;;10.70;80.30;;;;;;5114838;28;20020;-71
2022/10/03 06:16:55;;;;;;;5.05;3.00;;;10.70;80.60;;;;;;5114923;28;20028;-71
2022/10/03 06:19:23;;;;;;;4.45;2.92;;;10.80;80.60;;;;;;5114664;28;20080;-72
2022/10/03 06:22:23;;;;;;;5.22;2.90;;;10.80;80.50;;;;;;5114451;28;20084;-71
2022/10/03 06:25:30;;;;;;;5.93;3.30;;;10.80;80.50;;;;;;5114466;28;20027;-71
2022/10/03 06:28:29;;;;;;;8.30;3.40;;;10.70;80.70;;;;;;5052266;28;20037;-71
2022/10/03 06:31:12;;;;;;;7.30;3.45;;;10.70;81.60;;;;;;5114605;28;20016;-71
2022/10/03 06:34:16;;;;;;;9.05;3.40;;;10.70;81.50;;;;;;5096523;28;20432;-71
2022/10/03 06:37:19;;;;;;;8.00;3.42;;;10.70;81.70;;;;;;5114362;28;20042;-71
2022/10/03 06:40:13;;;;;;;7.07;4.22;;;10.70;81.80;;;;;;5114283;28;20042;-71
2022/10/03 06:43:11;;;;;;;8.30;3.85;;;10.70;82.40;;;;;;5114243;28;20032;-71
2022/10/03 06:45:49;;;;;;;5.80;4.07;;;10.70;82.80;;;;;;5114109;28;20020;-71
2022/10/03 06:49:05;;;;;;;9.10;4.32;;;10.80;83.20;;;;;;5114066;28;20070;-71
2022/10/03 06:51:54;;;;;;;9.75;4.05;;;10.80;83.10;;;;;;5114294;28;20049;-71
2022/10/03 06:54:23;;;;;;;9.38;4.72;;;10.90;82.90;;;;;;5082605;28;20036;-71
2022/10/03 06:57:06;;;;;;;8.52;4.45;;;11.00;83.10;;;;;;5114136;28;20017;-71
2022/10/03 06:59:56;;;;;;;8.55;4.75;;;11.00;83.50;;;;;;5114144;28;20024;-71
2022/10/03 07:02:48;;;;;;;9.20;5.10;;;11.10;83.50;;;;;;5113965;28;20425;-71
2022/10/03 07:05:22;;;;;;;11.18;5.07;;;11.20;83.80;;;;;;5113752;28;20054;-71
2022/10/03 07:08:01;;;;;;;12.88;4.78;;;11.20;84.00;;;;;;5113974;28;20024;-72
2022/10/03 07:10:39;;;;;;;11.23;4.90;;;11.30;84.40;;;;;;5113854;28;20038;-71
2022/10/03 07:13:28;;;;;;;11.93;5.57;;;11.30;84.50;;;;;;5113753;28;20031;-71
2022/10/03 07:16:26;;;;;;;7.47;4.93;;;11.40;84.50;;;;;;5113900;28;20032;-71
2022/10/03 07:19:27;;;;;;;9.63;4.90;;;11.50;84.40;;;;;;5113900;28;20027;-71
2022/10/03 07:22:23;;;;;;;12.82;5.25;;;11.60;85.30;;;;;;5113701;28;20025;-72
2022/10/03 07:25:29;;;;;;;10.75;5.70;;;11.70;85.00;;;;;;5113669;28;20027;-71
2022/10/03 07:28:16;;;;;;;9.45;5.47;;;11.70;84.70;;;;;;5113768;28;20024;-71
2022/10/03 07:31:00;;;;;;;11.23;5.85;;;11.80;84.90;;;;;;5113619;28;20039;-71
2022/10/03 07:33:38;;;;;;;13.27;5.90;;;11.80;85.40;;;;;;5113048;28;20447;-71
2022/10/03 07:39:25;;;;;;;11.88;5.90;;;12.00;85.10;;;;;;5113634;28;20039;-71
2022/10/03 07:42:08;;;;;;;11.82;6.30;;;12.10;85.30;;;;;;5113450;28;20024;-71
2022/10/03 07:45:02;;;;;;;11.02;6.30;;;12.20;85.20;;;;;;5113400;28;20031;-71
2022/10/03 07:47:34;;;;;;;13.55;6.35;;;12.30;85.20;;;;;;5113209;28;20056;-71
2022/10/03 07:50:05;;;;;;;10.63;6.15;;;12.40;85.10;;;;;;5113391;28;20116;-71
2022/10/03 07:52:51;;;;;;;10.50;6.38;;;12.40;85.00;;;;;;5113348;28;20025;-71
2022/10/03 07:55:46;;;;;;;14.95;6.32;;;12.50;85.10;;;;;;5113483;28;20027;-71
2022/10/03 07:58:54;;;;;;;10.60;6.50;;;12.60;85.30;;;;;;5099861;28;20115;-71
2022/10/03 08:01:54;;;;;;;13.73;6.72;;;12.70;85.30;;;;;;5113264;28;20044;-71
2022/10/03 08:04:26;;;;;;;11.13;6.38;;;12.80;85.30;;;;;;5113235;28;20103;-71
2022/10/03 08:07:13;;;;;;;12.77;7.10;;;12.90;85.20;;;;;;5113210;28;20052;-71
2022/10/03 08:09:58;;;;;;;12.48;6.53;;;13.00;85.30;;;;;;5113223;28;20020;-71
2022/10/03 08:13:01;;;;;;;11.90;6.53;;;13.10;85.50;;;;;;5113227;28;20023;-71
2022/10/03 08:15:48;;;;;;;11.90;6.95;;;13.30;85.10;;;;;;5104796;28;20486;-72
2022/10/03 08:18:51;;;;;;;9.13;5.95;;;13.40;85.00;;;;;;5113145;28;20020;-71
2022/10/03 08:21:23;;;;;;;9.88;7.25;;;13.50;84.90;;;;;;5113294;28;20027;-71
2022/10/03 08:24:06;;;;;;;11.30;6.28;;;13.60;84.70;;;;;;5113252;28;20020;-71
2022/10/03 08:26:50;;;;;;;11.60;6.20;;;13.70;84.60;;;;;;5113135;28;20028;-71
2022/10/03 08:29:53;;;;;;;11.55;6.80;;;13.80;84.40;;;;;;5113056;28;20020;-71
2022/10/03 08:32:42;;;;;;;10.93;6.25;;;13.90;84.50;;;;;;5113127;28;20031;-71
2022/10/03 08:35:20;;;;;;;8.55;6.20;;;13.90;84.50;;;;;;5084082;28;20047;-71
2022/10/03 08:38:32;;;;;;;11.73;6.80;;;14.00;84.30;;;;;;5112908;28;20024;-71
2022/10/03 08:41:35;;;;;;;14.25;7.25;;;14.10;84.50;;;;;;5113075;28;20031;-71
2022/10/03 08:44:01;;;;;;;;;;;14.20;84.60;;;;;;5115340;28;20028;-71
2022/10/03 08:46:42;;;;;;;13.52;6.97;;;14.40;84.10;;;;;;5116488;28;19908;-71
2022/10/03 08:49:29;;;;;;;13.93;6.20;;;14.40;83.90;;;;;;5116634;28;20048;-71
2022/10/03 08:52:02;;;;;;;13.23;6.88;;;14.50;83.50;;;;;;5116457;28;20073;-71
2022/10/03 08:54:58;;;;;;;13.05;6.40;;;14.60;83.30;;;;;;5116520;28;20048;-71
2022/10/03 08:57:54;;;;;;;14.32;6.35;;;14.70;83.10;;;;;;5116461;28;20017;-71
2022/10/03 09:00:22;;;;;;;13.15;5.95;;;14.90;82.90;;;;;;5116303;28;20024;-72
2022/10/03 09:03:05;;;;;;;12.30;5.93;;;14.90;82.20;;;;;;5116193;28;20025;-71
2022/10/03 09:05:53;;;;;;;10.32;5.45;;;15.00;82.50;;;;;;5116256;28;20028;-72
2022/10/03 09:08:19;;;;;;;8.02;5.03;;;15.10;82.30;;;;;;5115569;28;20032;-71
2022/10/03 09:11:22;;;;;;;8.77;4.22;;;15.20;82.00;;;;;;5116021;28;20020;-71
2022/10/03 09:14:03;;;;;;;10.05;4.47;;;15.30;80.80;;;;;;5097976;28;20031;-71
2022/10/03 09:16:40;;;;;;;9.02;5.47;;;15.40;81.10;;;;;;5115925;28;20032;-71
2022/10/03 09:19:15;;;;;;;10.77;4.82;;;15.50;81.20;;;;;;5115902;28;20031;-71
2022/10/03 09:22:02;;;;;;;9.13;4.07;;;15.60;80.70;;;;;;5116028;28;20038;-72
2022/10/03 09:24:58;;;;;;;8.77;3.90;;;15.60;80.20;;;;;;5115859;28;20024;-71
2022/10/03 09:27:33;;;;;;;8.25;3.95;;;15.80;80.20;;;;;;5115711;28;20467;-71
2022/10/03 09:30:22;;;;;;;10.55;4.30;;;15.90;80.30;;;;;;5115559;28;20020;-71
2022/10/03 09:33:27;;;;;;;7.32;3.67;;;16.00;78.80;;;;;;5115773;28;20024;-71
2022/10/03 09:36:12;;;;;;;12.73;3.20;;;16.10;78.70;;;;;;5092562;28;20038;-71
2022/10/03 09:38:43;;;;;;;7.13;2.80;;;16.20;77.70;;;;;;5115513;28;20063;-71
2022/10/03 09:41:34;;;;;;;6.57;3.72;;;16.20;77.30;;;;;;5115658;28;20031;-71
2022/10/03 09:44:02;;;;;;;6.90;3.70;;;16.30;76.30;;;;;;5097465;28;20038;-71
2022/10/03 09:46:28;;;;;;;9.13;3.65;;;16.40;77.30;;;;;;5115224;28;20035;-71
2022/10/03 09:49:31;;;;;;;6.93;3.33;;;16.40;76.90;;;;;;5115159;28;20048;-71
2022/10/03 09:52:24;;;;;;;5.68;3.13;;;16.50;76.90;;;;;;5115219;28;20027;-71
2022/10/03 09:55:25;;;;;;;5.95;2.97;;;16.50;76.80;;;;;;5114571;28;20048;-71
2022/10/03 09:58:17;;;;;;;5.97;2.70;;;16.60;75.80;;;;;;5104222;28;20047;-71
2022/10/03 10:01:17;;;;;;;5.93;2.60;;;16.60;76.50;;;;;;5115110;28;20035;-71
2022/10/03 10:03:45;;;;;;;9.05;2.70;;;16.70;76.50;;;;;;5115001;28;20032;-71
2022/10/03 10:06:14;;;;;;;7.25;2.10;;;16.80;76.00;;;;;;5114844;28;20024;-71
2022/10/03 10:09:31;;;;;;;5.72;2.20;;;16.90;75.90;;;;;;5114891;28;20383;-71
2022/10/03 10:12:27;;;;;;;3.88;1.95;;;16.90;74.70;;;;;;5080967;28;20044;-71
2022/10/03 10:15:03;;;;;;;4.97;2.00;;;17.00;74.80;;;;;;5114961;28;20043;-72
2022/10/03 10:17:48;;;;;;;4.43;1.98;;;17.00;72.30;;;;;;5114767;28;20036;-71
2022/10/03 10:20:38;;;;;;;4.65;2.22;;;16.90;71.10;;;;;;5114689;28;20035;-72
2022/10/03 10:23:12;;;;;;;7.97;2.70;;;16.90;73.20;;;;;;5114797;28;20028;-71
2022/10/03 10:26:12;;;;;;;7.30;2.67;;;17.00;74.20;;;;;;5114521;28;20490;-71
2022/10/03 10:29:08;;;;;;;13.25;2.50;;;17.10;73.70;;;;;;5114445;28;20032;-71
2022/10/03 10:31:54;;;;;;;6.53;3.17;;;17.20;72.10;;;;;;5087556;28;20114;-71
2022/10/03 10:34:29;;;;;;;7.85;2.28;;;17.20;73.30;;;;;;5114473;28;20020;-71
2022/10/03 10:37:18;;;;;;;5.65;2.50;;;17.30;72.50;;;;;;5114460;28;20027;-71
2022/10/03 10:39:50;;;;;;;5.03;2.45;;;17.40;72.60;;;;;;5114332;28;20016;-71
2022/10/03 10:42:52;;;;;;;13.27;2.50;;;17.40;73.30;;;;;;5114435;28;20031;-71
2022/10/03 10:45:24;;;;;;;6.18;2.10;;;17.40;69.60;;;;;;5114214;28;20095;-71
2022/10/03 10:48:37;;;;;;;7.30;2.30;;;17.50;71.20;;;;;;5114035;28;20050;-71
2022/10/03 10:51:22;;;;;;;8.15;2.78;;;17.70;72.10;;;;;;5114301;28;20032;-71
2022/10/03 10:54:28;;;;;;;8.63;2.92;;;17.70;71.10;;;;;;5114135;28;20030;-71
2022/10/03 10:57:31;;;;;;;6.25;2.35;;;17.80;71.10;;;;;;5114039;28;20031;-71
2022/10/03 11:00:09;;;;;;;4.30;2.30;;;17.80;70.60;;;;;;5113996;28;20034;-71
2022/10/03 11:03:13;;;;;;;7.35;2.17;;;17.80;70.60;;;;;;5113944;28;20032;-71
2022/10/03 11:05:45;;;;;;;5.45;2.28;;;17.90;70.70;;;;;;5113846;28;20032;-71
2022/10/03 11:08:39;;;;;;;7.78;2.65;;;17.90;68.70;;;;;;5113073;28;20016;-71
2022/10/03 11:11:24;;;;;;;6.53;2.50;;;17.80;68.60;;;;;;5113879;28;20024;-71
2022/10/03 11:14:34;;;;;;;7.40;2.58;;;17.70;69.40;;;;;;5113758;28;20026;-69
2022/10/03 11:17:32;;;;;;;5.72;2.33;;;17.70;67.50;;;;;;5113717;28;20036;-71
2022/10/03 11:20:23;;;;;;;6.25;2.22;;;17.70;69.10;;;;;;5102651;28;20028;-71
2022/10/03 11:23:26;;;;;;;7.15;2.55;;;17.80;69.00;;;;;;5084742;28;20043;-71
2022/10/03 11:26:23;;;;;;;7.50;2.50;;;17.90;68.60;;;;;;5113646;28;20027;-71
2022/10/03 11:28:55;;;;;;;6.47;2.20;;;18.00;68.10;;;;;;5113642;28;20383;-71
2022/10/03 11:31:20;;;;;;;7.65;2.03;;;18.00;67.80;;;;;;5113596;28;20024;-71
2022/10/03 11:34:11;;;;;;;10.15;2.13;;;18.00;67.30;;;;;;5113672;28;20371;-71
2022/10/03 11:36:58;;;;;;;7.78;2.20;;;18.00;66.40;;;;;;5113496;28;20053;-71
2022/10/03 11:39:26;;;;;;;5.65;2.25;;;17.90;66.30;;;;;;5113635;28;20020;-71
2022/10/03 11:42:05;;;;;;;6.45;2.10;;;17.90;67.00;;;;;;5113447;28;20024;-71
2022/10/03 11:44:42;;;;;;;4.35;1.88;;;18.00;67.20;;;;;;5113581;28;20051;-71
2022/10/03 11:47:50;;;;;;;6.03;2.05;;;17.90;66.80;;;;;;5113391;28;20043;-71
2022/10/03 11:50:28;;;;;;;3.53;1.88;;;17.90;66.10;;;;;;5051219;28;20057;-71
2022/10/03 11:53:13;;;;;;;4.70;1.20;;;17.90;67.30;;;;;;5051371;28;20036;-71
2022/10/03 11:56:16;;;;;;;4.88;1.40;;;17.90;67.60;;;;;;5095669;28;20029;-71
2022/10/03 11:59:11;;;;;;;5.05;1.33;;;17.90;67.90;;;;;;5113541;28;20028;-71
2022/10/03 12:01:46;;;;;;;2.75;1.50;;;18.00;67.10;;;;;;5113335;28;20386;-71
2022/10/03 12:04:26;;;;;;;3.65;0.95;;;18.00;67.80;;;;;;5113243;28;20032;-71
2022/10/03 12:10:29;;;;;;;4.80;1.20;;;18.10;67.00;;;;;;5113443;28;20031;-71
2022/10/03 12:12:55;;;;;;;3.05;0.88;;;18.20;65.80;;;;;;5085621;28;20415;-71
2022/10/03 12:15:30;;;;;;;5.30;1.15;;;18.20;66.60;;;;;;5113144;28;20020;-71
2022/10/03 12:18:13;;;;;;;5.85;1.17;;;18.30;65.70;;;;;;5113519;28;20032;-71
2022/10/03 12:20:57;;;;;;;4.85;1.27;;;18.40;65.50;;;;;;5117225;28;20028;-71
2022/10/03 12:23:38;;;;;;;3.28;1.02;;;18.40;65.40;;;;;;5117017;28;20029;-71
2022/10/03 12:26:10;;;;;;;5.75;1.38;;;18.50;65.70;;;;;;5116880;28;20081;-71
2022/10/03 12:28:41;;;;;;;2.47;0.88;;;18.50;65.80;;;;;;5116990;28;20017;-71
2022/10/03 12:31:34;;;;;;;4.80;1.30;;;18.60;65.40;;;;;;5116997;28;20020;-71
2022/10/03 12:34:16;;;;;;;4.35;1.30;;;18.60;64.40;;;;;;5116825;28;20020;-71
2022/10/03 12:37:06;;;;;;;3.95;1.13;;;18.60;65.10;;;;;;5116764;28;20028;-71
2022/10/03 12:39:44;;;;;;;4.38;1.30;;;18.60;64.80;;;;;;5116699;28;20028;-71
2022/10/03 12:42:31;;;;;;;9.02;1.67;;;18.70;64.60;;;;;;5116563;28;20085;-71
2022/10/03 12:45:11;;;;;;;3.65;1.08;;;18.80;63.20;;;;;;5116491;28;20056;-71
2022/10/03 12:48:01;;;;;;;4.32;1.48;;;18.80;63.20;;;;;;5116351;28;20055;-71
2022/10/03 12:50:53;;;;;;;4.45;1.00;;;18.90;63.20;;;;;;5116523;28;20024;-71
2022/10/03 12:53:38;;;;;;;4.45;1.27;;;18.90;64.00;;;;;;5116498;28;20021;-72
2022/10/03 12:56:41;;;;;;;5.38;1.10;;;18.90;64.40;;;;;;5116544;28;20078;-71
2022/10/03 12:59:18;;;;;;;2.92;0.98;;;18.90;62.60;;;;;;5116270;28;20450;-71
2022/10/03 13:01:56;;;;;;;5.68;1.10;;;18.80;63.10;;;;;;5116470;28;20111;-71
2022/10/03 13:04:29;;;;;;;7.30;1.60;;;18.70;63.50;;;;;;5116403;28;20027;-71
2022/10/03 13:07:02;;;;;;;4.28;1.15;;;18.60;63.00;;;;;;5116112;28;20031;-71
2022/10/03 13:09:28;;;;;;;;;;;18.50;62.50;;;;;;5116668;28;20016;-71
2022/10/03 13:12:02;;;;;;;4.85;1.05;;;18.40;63.00;;;;;;5116239;28;19904;-71
2022/10/03 13:15:06;;;;;;;6.28;1.45;;;18.40;63.90;;;;;;5098081;28;20028;-71
2022/10/03 13:17:38;;;;;;;3.15;1.40;;;18.40;64.10;;;;;;5115963;28;20024;-71
2022/10/03 13:20:15;;;;;;;6.45;1.13;;;18.40;64.90;;;;;;5116112;28;20493;-71
2022/10/03 13:23:03;;;;;;;5.95;1.35;;;18.40;65.30;;;;;;5115995;28;20024;-71
2022/10/03 13:25:46;;;;;;;2.35;1.00;;;18.30;63.70;;;;;;5115722;28;20109;-71
2022/10/03 13:28:17;;;;;;;5.32;1.33;;;18.40;64.40;;;;;;5115791;28;20020;-72
2022/10/03 13:31:00;;;;;;;3.40;1.15;;;18.50;64.50;;;;;;5114738;28;20050;-71
2022/10/03 13:33:31;;;;;;;2.97;1.00;;;18.60;64.10;;;;;;5115674;28;20077;-71
2022/10/03 13:36:07;;;;;;;4.90;1.33;;;18.50;64.10;;;;;;5115655;28;20020;-70
2022/10/03 13:38:56;;;;;;;5.35;1.33;;;18.60;63.90;;;;;;5115598;28;20378;-71
2022/10/03 13:41:37;;;;;;;5.05;0.85;;;18.60;63.70;;;;;;5115592;28;20024;-71
2022/10/03 13:44:11;;;;;;;7.10;1.60;;;18.50;64.10;;;;;;5115498;28;20028;-71
2022/10/03 13:46:52;;;;;;;2.97;0.82;;;18.50;63.90;;;;;;5115244;28;20544;-71
2022/10/03 13:49:33;;;;;;;7.25;1.45;;;18.60;64.20;;;;;;5115267;28;20020;-71
2022/10/03 13:52:20;;;;;;;3.17;1.00;;;18.60;64.30;;;;;;5115456;28;20016;-71
2022/10/03 13:55:12;;;;;;;5.78;0.93;;;18.60;64.30;;;;;;5104961;28;20061;-71
2022/10/03 13:58:02;;;;;;;2.35;0.82;;;18.70;64.00;;;;;;5115217;28;20018;-71
2022/10/03 14:00:52;;;;;;;6.13;1.42;;;18.70;64.10;;;;;;5115174;28;20016;-71
2022/10/03 14:03:27;;;;;;;3.85;1.10;;;18.70;64.40;;;;;;5083424;28;20039;-71
2022/10/03 14:06:04;;;;;;;3.72;1.50;;;18.70;64.40;;;;;;5114966;28;20039;-71
2022/10/03 14:08:59;;;;;;;4.03;1.27;;;18.70;64.50;;;;;;5115097;28;20024;-71
2022/10/03 14:12:01;;;;;;;3.72;0.90;;;18.70;64.30;;;;;;5101686;28;20064;-71
2022/10/03 14:14:58;;;;;;;7.15;1.33;;;18.70;64.00;;;;;;5115099;28;20031;-71
2022/10/03 14:17:38;;;;;;;4.53;1.08;;;18.70;64.40;;;;;;5114833;28;20024;-71
2022/10/03 14:20:22;;;;;;;3.70;1.23;;;18.70;64.80;;;;;;5114927;28;20020;-71
2022/10/03 14:23:07;;;;;;;7.03;1.55;;;18.70;64.40;;;;;;5114642;28;20031;-71
2022/10/03 14:26:03;;;;;;;4.90;1.40;;;18.70;64.70;;;;;;5114712;28;20035;-71
2022/10/03 14:28:48;;;;;;;4.40;1.60;;;18.70;64.90;;;;;;5114641;28;20048;-71
2022/10/03 14:31:23;;;;;;;3.70;1.27;;;18.60;65.90;;;;;;5114696;28;20528;-71
2022/10/03 14:34:14;;;;;;;4.13;1.17;;;18.60;66.80;;;;;;5114529;28;20016;-71